Time;durP1;ratioP1;P1;durP2;ratioP2;P2;SDS_P1;SDS_P2;PMS_P1;PMS_P2;Temp;Humidity;BMP_temperature;BMP_pressure;BME280_temperature;BME280_humidity;BME280_pressure;Samples;Min_cycle;Max_cycle;Signal;HPM_P1;HPM_P2
2022/01/19 00:01:06;;;;;;;18.25;6.15;;;;;;;1.42;100.00;102486.19;5038342;28;20045;-50
2022/01/19 00:03:31;;;;;;;12.18;5.40;;;;;;;1.38;100.00;102479.41;5040804;28;20036;-52
2022/01/19 00:05:57;;;;;;;8.82;4.80;;;;;;;1.30;100.00;102476.38;5040492;28;20060;-51
2022/01/19 00:08:25;;;;;;;12.18;5.93;;;;;;;1.24;100.00;102471.44;5043220;28;20033;-51
2022/01/19 00:10:50;;;;;;;12.85;6.28;;;;;;;1.12;100.00;102469.50;5041524;28;20479;-52
2022/01/19 00:13:17;;;;;;;8.43;5.68;;;;;;;1.04;100.00;102468.16;5042132;28;20025;-53
2022/01/19 00:15:42;;;;;;;9.70;4.53;;;;;;;0.95;100.00;102463.38;5041457;28;20064;-52
2022/01/19 00:18:08;;;;;;;11.38;5.07;;;;;;;0.87;100.00;102461.16;5033291;28;20025;-53
2022/01/19 00:20:34;;;;;;;7.80;4.72;;;;;;;0.78;100.00;102455.59;5040419;28;20033;-49
2022/01/19 00:23:03;;;;;;;8.43;5.53;;;;;;;0.80;100.00;102451.13;5039408;28;20028;-54
2022/01/19 00:25:30;;;;;;;13.63;6.10;;;;;;;0.76;100.00;102460.06;5039079;28;20040;-50
2022/01/19 00:27:55;;;;;;;12.63;4.82;;;;;;;0.79;100.00;102465.13;5034074;28;20217;-54
2022/01/19 00:30:21;;;;;;;11.80;5.35;;;;;;;0.80;100.00;102472.00;5042121;28;20033;-50
2022/01/19 00:32:46;;;;;;;12.15;5.40;;;;;;;0.78;100.00;102468.66;5035461;28;20033;-50
2022/01/19 00:35:12;;;;;;;7.20;5.47;;;;;;;0.77;100.00;102462.56;5035358;28;20074;-50
2022/01/19 00:37:40;;;;;;;11.20;6.05;;;;;;;0.77;100.00;102453.91;5039610;28;20113;-51
2022/01/19 00:40:07;;;;;;;11.18;4.95;;;;;;;0.76;100.00;102447.00;5040943;28;20041;-54
2022/01/19 00:42:32;;;;;;;10.57;4.47;;;;;;;0.77;100.00;102431.22;5034446;28;20259;-51
2022/01/19 00:44:58;;;;;;;7.30;4.93;;;;;;;0.81;100.00;102416.25;5025406;28;20126;-53
2022/01/19 00:47:23;;;;;;;9.82;5.20;;;;;;;0.79;100.00;102413.72;5040122;28;20505;-51
2022/01/19 00:49:49;;;;;;;9.05;5.65;;;;;;;0.79;100.00;102412.88;5041398;28;20029;-50
2022/01/19 00:52:14;;;;;;;11.95;5.30;;;;;;;0.81;100.00;102405.81;5037743;28;20404;-51
2022/01/19 00:54:41;;;;;;;11.70;4.25;;;;;;;0.81;100.00;102404.03;5036286;28;20036;-54
2022/01/19 00:57:07;;;;;;;6.05;4.28;;;;;;;0.83;100.00;102393.53;5040293;28;20110;-53
2022/01/19 00:59:33;;;;;;;9.45;5.32;;;;;;;0.83;100.00;102399.59;5035075;28;20363;-50
2022/01/19 01:01:58;;;;;;;6.22;4.13;;;;;;;0.86;100.00;102402.03;5034814;28;20055;-50
2022/01/19 01:04:24;;;;;;;10.18;4.18;;;;;;;0.87;100.00;102414.16;5040673;28;20052;-51
2022/01/19 01:06:50;;;;;;;7.43;4.25;;;;;;;0.89;100.00;102410.63;5034372;28;20029;-50
2022/01/19 01:09:15;;;;;;;8.88;4.35;;;;;;;0.92;100.00;102411.31;5039501;28;20052;-52
2022/01/19 01:11:48;;;;;;;8.23;4.03;;;;;;;0.96;100.00;102407.63;5039235;28;21177;-50
2022/01/19 01:16:58;;;;;;;7.20;4.75;;;;;;;1.03;100.00;102422.06;5045111;28;20090;-50
2022/01/19 01:19:24;;;;;;;10.15;5.47;;;;;;;1.09;100.00;102418.25;5045509;28;20079;-51
2022/01/19 01:21:50;;;;;;;12.48;5.25;;;;;;;1.09;100.00;102406.03;5042751;28;20025;-51
2022/01/19 01:24:15;;;;;;;12.02;5.15;;;;;;;1.08;100.00;102380.84;5044011;28;20036;-48
2022/01/19 01:26:41;;;;;;;10.07;5.53;;;;;;;1.09;100.00;102379.06;5045037;28;20381;-55
2022/01/19 01:29:06;;;;;;;6.05;4.07;;;;;;;1.08;100.00;102375.63;5037952;28;20029;-52
2022/01/19 01:31:31;;;;;;;7.75;5.45;;;;;;;1.08;100.00;102362.56;5039102;28;20029;-50
2022/01/19 01:33:57;;;;;;;7.70;4.70;;;;;;;1.11;100.00;102345.00;5044059;28;20121;-54
2022/01/19 01:36:22;;;;;;;6.07;3.55;;;;;;;1.15;100.00;102333.47;5044816;28;20486;-54
2022/01/19 01:38:47;;;;;;;9.88;5.97;;;;;;;1.15;100.00;102333.47;5044130;28;20029;-53
2022/01/19 01:41:14;;;;;;;8.80;5.70;;;;;;;1.16;100.00;102336.00;5039277;28;20386;-55
2022/01/19 01:43:43;;;;;;;11.75;4.32;;;;;;;1.18;100.00;102330.69;5038565;28;20025;-52
2022/01/19 01:46:19;;;;;;;13.48;5.28;;;;;;;1.18;100.00;102326.28;5044956;28;20037;-49
2022/01/19 01:48:46;;;;;;;9.23;5.50;;;;;;;1.19;100.00;102334.97;5044381;28;20028;-49
2022/01/19 01:53:58;;;;;;;12.13;4.05;;;;;;;1.25;100.00;102347.72;5046722;28;20043;-53
2022/01/19 01:56:24;;;;;;;11.32;4.68;;;;;;;1.24;100.00;102348.63;5048479;28;20025;-54
2022/01/19 01:58:49;;;;;;;10.38;5.43;;;;;;;1.22;100.00;102345.28;5040698;28;20022;-54
2022/01/19 02:01:15;;;;;;;9.45;5.25;;;;;;;1.22;100.00;102342.66;5041844;28;20110;-54
2022/01/19 02:03:43;;;;;;;9.43;4.28;;;;;;;1.21;100.00;102333.97;5038783;28;20048;-52
2022/01/19 02:08:52;;;;;;;4.68;3.70;;;;;;;1.22;100.00;102314.75;5037900;28;20044;-54
2022/01/19 02:23:06;;;;;;;7.50;3.95;;;;;;;1.32;100.00;102294.19;5043917;28;20508;-54
2022/01/19 02:25:38;;;;;;;11.27;5.47;;;;;;;1.36;100.00;102292.22;5043641;28;20116;-55
2022/01/19 02:41:37;;;;;;;10.52;3.70;;;;;;;1.37;100.00;102244.25;5044233;28;20099;-54
2022/01/19 02:44:03;;;;;;;7.28;4.45;;;;;;;1.40;100.00;102238.88;5039879;28;20051;-52
2022/01/19 02:46:52;;;;;;;6.50;3.50;;;;;;;1.41;100.00;102233.53;5043187;28;20403;-54
2022/01/19 02:49:18;;;;;;;11.27;3.83;;;;;;;1.43;100.00;102231.69;5041074;28;20036;-50
2022/01/19 02:51:48;;;;;;;9.20;3.55;;;;;;;1.45;100.00;102223.75;5044522;28;20108;-52
2022/01/19 02:54:17;;;;;;;8.07;5.10;;;;;;;1.51;100.00;102226.84;5046367;28;20079;-53
2022/01/19 02:56:46;;;;;;;8.70;4.57;;;;;;;1.53;100.00;102230.22;5047765;28;20278;-51
2022/01/19 02:59:20;;;;;;;9.48;3.78;;;;;;;1.56;100.00;102226.56;5041234;28;20514;-50
2022/01/19 03:09:46;;;;;;;11.80;4.07;;;;;;;1.75;100.00;102218.47;5044076;28;20041;-51
2022/01/19 03:12:12;;;;;;;7.95;3.38;;;;;;;1.72;100.00;102209.03;5047096;28;20069;-53
2022/01/19 03:14:39;;;;;;;6.13;3.63;;;;;;;1.75;100.00;102208.84;5043458;28;20473;-51
2022/01/19 03:17:06;;;;;;;8.98;4.40;;;;;;;1.75;100.00;102198.38;5030999;28;20087;-53
2022/01/19 03:19:33;;;;;;;9.93;3.72;;;;;;;1.77;100.00;102195.69;5046526;28;20135;-53
2022/01/19 03:21:59;;;;;;;8.30;3.45;;;;;;;1.79;100.00;102187.78;5052340;28;20040;-49
2022/01/19 03:24:25;;;;;;;5.72;3.28;;;;;;;1.81;100.00;102183.25;5045755;28;20083;-49
2022/01/19 03:26:51;;;;;;;8.35;4.10;;;;;;;1.80;100.00;102178.97;5032552;28;20466;-49
2022/01/19 03:29:16;;;;;;;6.65;4.60;;;;;;;1.78;100.00;102173.81;5040374;28;20126;-55
2022/01/19 03:31:42;;;;;;;4.53;3.00;;;;;;;1.78;100.00;102171.22;5034686;28;20033;-54
2022/01/19 03:34:07;;;;;;;5.38;3.28;;;;;;;1.80;100.00;102173.75;5036585;28;20029;-51
2022/01/19 03:36:34;;;;;;;7.30;3.92;;;;;;;1.84;100.00;102170.88;5045024;28;20509;-53
2022/01/19 03:38:59;;;;;;;6.20;3.25;;;;;;;1.82;100.00;102175.34;5042844;28;20033;-54
2022/01/19 03:41:25;;;;;;;6.65;3.85;;;;;;;1.88;100.00;102180.19;5038343;28;20035;-50
2022/01/19 03:43:51;;;;;;;8.85;2.70;;;;;;;1.93;100.00;102175.50;5050070;28;20496;-52
2022/01/19 03:46:17;;;;;;;9.95;2.83;;;;;;;1.96;100.00;102172.75;5046082;28;20131;-51
2022/01/19 03:48:57;;;;;;;3.63;2.42;;;;;;;1.93;100.00;102165.06;5042036;28;20111;-55
2022/01/19 03:51:23;;;;;;;10.05;2.97;;;;;;;1.96;100.00;102149.19;5040000;28;20475;-51
2022/01/19 03:53:49;;;;;;;3.47;2.38;;;;;;;1.97;100.00;102147.41;5047782;28;20099;-52
2022/01/19 03:56:16;;;;;;;2.33;2.05;;;;;;;1.99;100.00;102148.16;5045746;28;20429;-54
2022/01/19 03:58:42;;;;;;;5.25;3.10;;;;;;;1.98;100.00;102140.41;5036992;28;20033;-52
2022/01/19 04:01:08;;;;;;;6.00;2.45;;;;;;;1.96;100.00;102140.47;5037515;28;20037;-51
2022/01/19 04:03:56;;;;;;;5.00;2.53;;;;;;;1.96;100.00;102127.41;5042122;28;20029;-51
2022/01/19 04:06:50;;;;;;;8.00;4.00;;;;;;;1.99;100.00;102131.59;5032755;28;20036;-56
2022/01/19 04:09:04;;;;;;;4.05;1.92;;;;;;;2.14;100.00;102130.66;5041738;28;20098;-52
2022/01/19 04:11:29;;;;;;;3.75;2.30;;;;;;;2.32;100.00;102145.22;5046127;28;20025;-53
2022/01/19 04:16:20;;;;;;;4.00;2.90;;;;;;;2.64;100.00;102136.25;5041157;28;20064;-52
2022/01/19 04:18:45;;;;;;;7.28;2.28;;;;;;;2.63;100.00;102135.41;5040841;28;20033;-54
2022/01/19 04:21:13;;;;;;;8.07;3.33;;;;;;;2.56;100.00;102126.28;5039149;28;20140;-53
2022/01/19 04:23:38;;;;;;;5.50;2.35;;;;;;;2.47;100.00;102130.31;5040208;28;20035;-50
2022/01/19 04:26:03;;;;;;;4.20;1.92;;;;;;;2.39;100.00;102122.94;5046887;28;20033;-55
2022/01/19 04:28:29;;;;;;;6.95;2.53;;;;;;;2.37;100.00;102118.72;5041827;28;20053;-50
2022/01/19 04:30:54;;;;;;;5.47;1.63;;;;;;;2.40;100.00;102116.78;5024541;28;20112;-49
2022/01/19 04:33:24;;;;;;;8.10;2.42;;;;;;;2.41;100.00;102112.38;5040140;28;20037;-54
2022/01/19 04:35:51;;;;;;;4.88;2.90;;;;;;;2.42;100.00;102116.66;5039327;28;20043;-52
2022/01/19 04:54:18;;;;;;;6.10;2.13;;;;;;;2.52;100.00;102093.34;5039373;28;20048;-54
2022/01/19 05:02:47;;;;;;;6.93;2.55;;;;;;;2.57;100.00;102078.19;5044034;28;20047;-55
2022/01/19 05:05:20;;;;;;;4.47;2.25;;;;;;;2.65;100.00;102057.56;5037212;28;20033;-51
2022/01/19 05:15:41;;;;;;;8.38;2.83;;;;;;;2.82;100.00;102035.50;5039397;28;20082;-54
2022/01/19 05:18:07;;;;;;;8.07;2.83;;;;;;;2.83;100.00;102030.16;5036521;28;20029;-52
2022/01/19 05:20:33;;;;;;;6.70;2.40;;;;;;;2.87;100.00;102024.72;5043769;28;20448;-53
2022/01/19 05:22:58;;;;;;;7.85;2.88;;;;;;;2.91;100.00;102032.25;5045240;28;20284;-54
2022/01/19 05:25:24;;;;;;;5.78;2.70;;;;;;;2.98;100.00;102032.69;5024091;28;20033;-53
2022/01/19 05:27:49;;;;;;;5.97;1.92;;;;;;;3.04;100.00;102040.13;5040062;28;20064;-54
2022/01/19 05:30:17;;;;;;;6.43;2.55;;;;;;;3.09;100.00;102040.66;5040259;28;20029;-52
2022/01/19 05:32:43;;;;;;;7.13;2.85;;;;;;;3.16;100.00;102020.97;5044992;28;20051;-52
2022/01/19 05:35:08;;;;;;;8.70;3.22;;;;;;;3.15;100.00;102028.91;5039351;28;20546;-49
2022/01/19 05:37:36;;;;;;;5.30;2.97;;;;;;;3.14;100.00;102022.00;5037128;28;20087;-53
2022/01/19 05:40:07;;;;;;;3.30;2.28;;;;;;;3.13;100.00;102028.22;5044276;28;20044;-51
2022/01/19 05:42:33;;;;;;;6.75;3.17;;;;;;;3.11;100.00;102014.34;5039721;28;20032;-50
2022/01/19 05:44:59;;;;;;;3.78;2.08;;;;;;;3.10;100.00;102010.91;5034848;28;20061;-50
2022/01/19 05:47:24;;;;;;;2.97;2.08;;;;;;;3.11;100.00;102023.06;5044452;28;20082;-55
2022/01/19 05:49:49;;;;;;;5.15;2.85;;;;;;;3.15;100.00;102028.91;5036547;28;20029;-51
2022/01/19 05:52:15;;;;;;;5.22;3.08;;;;;;;3.23;100.00;102027.47;5031386;28;20527;-55
2022/01/19 05:54:41;;;;;;;4.80;2.67;;;;;;;3.27;100.00;102004.50;5035627;28;20032;-55
2022/01/19 05:57:06;;;;;;;6.45;1.90;;;;;;;3.22;100.00;101994.31;5042539;28;20029;-51
2022/01/19 05:59:32;;;;;;;11.45;3.65;;;;;;;3.21;100.00;101986.56;5044432;28;20029;-53
2022/01/19 06:01:58;;;;;;;4.35;2.20;;;;;;;3.15;100.00;101987.84;5039357;28;20214;-52
2022/01/19 06:04:24;;;;;;;14.27;3.70;;;;;;;3.15;100.00;101998.31;5042127;28;20393;-50
2022/01/19 06:06:51;;;;;;;10.73;3.80;;;;;;;3.16;100.00;101984.25;5014984;28;20022;-55
2022/01/19 06:12:07;;;;;;;12.43;2.47;;;;;;;3.06;100.00;101983.22;5044243;28;20144;-53
2022/01/19 06:14:33;;;;;;;;;;;;;;;3.01;100.00;101977.44;5044986;28;20032;-51
2022/01/19 06:16:59;;;;;;;6.38;3.70;;;;;;;3.00;100.00;101978.41;5034485;28;19921;-51
2022/01/19 06:19:25;;;;;;;8.82;3.17;;;;;;;3.02;100.00;101986.97;5039102;28;20091;-53
2022/01/19 06:21:50;;;;;;;4.05;2.22;;;;;;;3.06;100.00;101977.97;5043961;28;20025;-50
2022/01/19 06:24:16;;;;;;;3.85;2.65;;;;;;;3.08;100.00;101965.63;5043756;28;20033;-55
2022/01/19 06:26:41;;;;;;;6.22;2.75;;;;;;;3.11;100.00;101965.41;5036074;28;20056;-53
2022/01/19 06:29:07;;;;;;;6.18;3.40;;;;;;;3.14;100.00;101970.41;5036489;28;20506;-50
2022/01/19 06:31:32;;;;;;;4.47;2.00;;;;;;;3.17;100.00;101979.84;5042068;28;20041;-51
2022/01/19 06:33:58;;;;;;;5.70;2.47;;;;;;;3.23;100.00;101961.94;5035935;28;20037;-53
2022/01/19 06:36:23;;;;;;;5.65;2.50;;;;;;;3.17;100.00;101957.09;5044655;28;20029;-55
2022/01/19 06:38:48;;;;;;;5.05;2.47;;;;;;;3.15;100.00;101943.28;5046053;28;20116;-52
2022/01/19 06:41:14;;;;;;;8.02;2.55;;;;;;;3.05;100.00;101908.19;5048010;28;20053;-51
2022/01/19 06:43:39;;;;;;;11.18;3.20;;;;;;;2.93;100.00;101909.03;5048154;28;20107;-52
2022/01/19 06:46:05;;;;;;;4.55;2.65;;;;;;;2.86;100.00;101910.38;5038052;28;20029;-55
2022/01/19 06:48:30;;;;;;;6.15;3.22;;;;;;;2.78;100.00;101905.66;5047270;28;20025;-53
2022/01/19 06:50:56;;;;;;;11.55;3.10;;;;;;;2.67;100.00;101909.03;5038750;28;20045;-51
2022/01/19 06:53:21;;;;;;;8.05;2.50;;;;;;;2.59;100.00;101912.16;5036378;28;20379;-55
2022/01/19 06:55:46;;;;;;;3.75;2.95;;;;;;;2.56;100.00;101907.16;5041312;28;20033;-52
2022/01/19 06:58:12;;;;;;;4.82;3.40;;;;;;;2.46;100.00;101921.78;5046808;28;20620;-55
2022/01/19 07:00:38;;;;;;;8.68;3.15;;;;;;;2.44;100.00;101928.06;5042510;28;20047;-51
2022/01/19 07:03:03;;;;;;;5.50;2.90;;;;;;;2.42;100.00;101920.31;5029552;28;20426;-55
2022/01/19 07:05:29;;;;;;;3.80;2.83;;;;;;;2.33;100.00;101923.56;5041368;28;20513;-53
2022/01/19 07:07:56;;;;;;;6.78;2.22;;;;;;;2.23;100.00;101920.72;5029061;28;20025;-50
2022/01/19 07:10:22;;;;;;;5.22;2.03;;;;;;;2.15;100.00;101923.84;5044823;28;20107;-52
2022/01/19 07:12:47;;;;;;;8.18;3.17;;;;;;;2.15;100.00;101934.31;5043388;28;20069;-52
2022/01/19 07:15:13;;;;;;;7.53;3.28;;;;;;;2.23;100.00;101933.78;5040658;28;20473;-52
2022/01/19 07:17:38;;;;;;;4.68;2.22;;;;;;;2.32;100.00;101935.81;5047132;28;20043;-53
2022/01/19 07:20:05;;;;;;;9.38;3.17;;;;;;;2.45;100.00;101930.56;5044563;28;20390;-54
2022/01/19 07:22:30;;;;;;;5.25;3.03;;;;;;;2.43;100.00;101927.25;5039207;28;20383;-52
2022/01/19 07:24:58;;;;;;;3.15;2.42;;;;;;;2.33;100.00;101920.94;5034501;28;20139;-54
2022/01/19 07:27:24;;;;;;;12.77;4.40;;;;;;;2.15;100.00;101915.16;5036191;28;20048;-52
2022/01/19 07:29:50;;;;;;;7.18;2.75;;;;;;;2.00;100.00;101911.75;5035164;28;20037;-55
2022/01/19 07:32:16;;;;;;;7.05;3.35;;;;;;;1.92;100.00;101919.25;5042170;28;20024;-52
2022/01/19 07:34:41;;;;;;;7.93;6.05;;;;;;;1.96;100.00;101923.34;5042237;28;20430;-53
2022/01/19 07:37:07;;;;;;;7.97;3.83;;;;;;;2.07;100.00;101935.75;5039658;28;20514;-52
2022/01/19 07:39:32;;;;;;;6.20;2.63;;;;;;;2.02;100.00;101906.44;5040422;28;20037;-52
2022/01/19 07:41:57;;;;;;;5.20;3.00;;;;;;;1.83;100.00;101922.47;5038931;28;20035;-54
2022/01/19 07:44:23;;;;;;;8.57;3.63;;;;;;;1.74;100.00;101910.81;5035665;28;20304;-53
2022/01/19 07:46:51;;;;;;;6.90;2.97;;;;;;;1.72;100.00;101917.94;5046294;28;20537;-50
2022/01/19 07:49:16;;;;;;;7.40;3.90;;;;;;;1.90;100.00;101937.66;5041670;28;20032;-54
2022/01/19 07:51:42;;;;;;;6.72;2.78;;;;;;;2.03;100.00;101929.03;5038803;28;20021;-50
2022/01/19 07:54:10;;;;;;;5.07;3.00;;;;;;;2.03;100.00;101910.72;5037744;28;20529;-53
2022/01/19 07:56:36;;;;;;;4.80;4.28;;;;;;;2.04;100.00;101909.75;5035881;28;20033;-52
2022/01/19 07:59:01;;;;;;;11.95;4.18;;;;;;;2.07;100.00;101913.03;5038008;28;20072;-55
2022/01/19 08:01:30;;;;;;;10.02;3.78;;;;;;;2.19;100.00;101916.59;5041809;28;20119;-50
2022/01/19 08:03:57;;;;;;;7.38;2.72;;;;;;;2.38;100.00;101905.78;5045162;28;20052;-52
2022/01/19 08:06:22;;;;;;;10.57;3.90;;;;;;;2.40;100.00;101901.25;5039201;28;21028;-52
2022/01/19 08:08:48;;;;;;;8.38;3.28;;;;;;;2.41;100.00;101892.47;5041649;28;20037;-54
2022/01/19 08:11:13;;;;;;;8.40;4.18;;;;;;;2.48;100.00;101885.03;5038774;28;20547;-54
2022/01/19 08:13:38;;;;;;;4.50;2.63;;;;;;;2.42;100.00;101883.66;5039982;28;20083;-52
2022/01/19 08:16:04;;;;;;;9.48;3.22;;;;;;;2.34;100.00;101892.03;5043457;28;20075;-54
2022/01/19 08:18:29;;;;;;;3.50;2.38;;;;;;;2.41;100.00;101892.47;5043518;28;20025;-51
2022/01/19 08:20:56;;;;;;;4.57;2.53;;;;;;;2.36;100.00;101891.94;5031115;28;20110;-49
2022/01/19 08:23:21;;;;;;;6.60;2.97;;;;;;;2.29;100.00;101888.88;5039299;28;20032;-55
2022/01/19 08:25:46;;;;;;;5.75;3.13;;;;;;;2.28;100.00;101879.38;5039259;28;20032;-51
2022/01/19 08:28:12;;;;;;;6.93;3.22;;;;;;;2.36;100.00;101874.44;5035766;28;20052;-54
2022/01/19 08:30:37;;;;;;;6.25;4.30;;;;;;;2.49;100.00;101873.63;5021397;28;20671;-54
2022/01/19 08:33:03;;;;;;;8.00;3.70;;;;;;;2.50;100.00;101880.53;5034857;28;20115;-53
2022/01/19 08:35:28;;;;;;;6.78;3.75;;;;;;;2.54;100.00;101882.00;5037354;28;20028;-55
2022/01/19 08:38:44;;;;;;;11.90;4.53;;;;;;;2.53;100.00;101880.31;5048376;28;20041;-54
2022/01/19 08:41:09;;;;;;;7.25;4.18;;;;;;;2.50;100.00;101886.59;5037787;28;20040;-51
2022/01/19 08:43:35;;;;;;;6.38;3.33;;;;;;;2.57;100.00;101890.47;5036593;28;20496;-51
2022/01/19 08:46:01;;;;;;;9.60;4.47;;;;;;;2.59;100.00;101882.53;5038138;28;20120;-52
2022/01/19 08:48:27;;;;;;;4.20;2.95;;;;;;;2.59;100.00;101895.63;5037821;28;20033;-50
2022/01/19 08:50:53;;;;;;;10.77;4.47;;;;;;;2.67;100.00;101885.47;5034927;28;20028;-52
2022/01/19 08:53:20;;;;;;;9.13;3.65;;;;;;;2.74;100.00;101880.66;5043242;28;20035;-53
2022/01/19 08:55:46;;;;;;;5.00;3.08;;;;;;;2.81;100.00;101882.75;5045489;28;20095;-52
2022/01/19 08:58:13;;;;;;;6.82;3.03;;;;;;;2.89;100.00;101881.34;5042956;28;20421;-52
2022/01/19 09:00:44;;;;;;;3.85;2.25;;;;;;;2.95;100.00;101886.19;5044787;28;20486;-52
2022/01/19 09:03:10;;;;;;;8.30;4.32;;;;;;;2.98;100.00;101878.94;5043096;28;20428;-52
2022/01/19 09:05:35;;;;;;;4.72;3.38;;;;;;;3.01;100.00;101881.31;5044596;28;20029;-54
2022/01/19 09:08:01;;;;;;;12.57;4.35;;;;;;;3.02;100.00;101890.03;5042168;28;20033;-52
2022/01/19 09:10:26;;;;;;;6.05;3.28;;;;;;;3.08;100.00;101891.41;5041646;28;20041;-52
2022/01/19 09:12:52;;;;;;;6.30;3.10;;;;;;;3.11;100.00;101888.56;5026940;28;20382;-55
2022/01/19 09:15:18;;;;;;;5.57;3.83;;;;;;;3.14;100.00;101886.53;5037074;28;20072;-54
2022/01/19 09:17:44;;;;;;;11.98;4.45;;;;;;;3.17;100.00;101881.09;5029657;28;20602;-49
2022/01/19 09:20:11;;;;;;;7.32;3.63;;;;;;;3.21;100.00;101881.72;5044581;28;20089;-56
2022/01/19 09:22:37;;;;;;;13.05;4.07;;;;;;;3.25;100.00;101891.88;5038896;28;20079;-54
2022/01/19 09:25:04;;;;;;;7.95;3.78;;;;;;;3.27;100.00;101891.75;5035049;28;20040;-52
2022/01/19 09:27:29;;;;;;;5.35;2.70;;;;;;;3.28;100.00;101896.91;5041757;28;20041;-52
2022/01/19 09:29:54;;;;;;;4.53;3.03;;;;;;;3.32;100.00;101894.06;5044238;28;20040;-50
2022/01/19 09:32:20;;;;;;;7.13;3.25;;;;;;;3.35;100.00;101904.31;5026549;28;20371;-53
2022/01/19 09:34:54;;;;;;;28.80;11.80;;;;;;;3.34;100.00;101902.66;5030962;28;20496;-54
2022/01/19 09:37:20;;;;;;;18.48;8.07;;;;;;;3.34;100.00;101903.50;5038469;28;20040;-52
2022/01/19 09:39:45;;;;;;;9.48;5.82;;;;;;;3.34;100.00;101905.28;5041899;28;20041;-54
2022/01/19 09:42:12;;;;;;;12.38;4.88;;;;;;;3.35;100.00;101907.78;5044881;28;20025;-54
2022/01/19 09:44:37;;;;;;;5.90;3.55;;;;;;;3.38;100.00;101909.34;5045155;28;20025;-52
2022/01/19 09:47:03;;;;;;;13.63;3.75;;;;;;;3.42;100.00;101889.84;5039107;28;20029;-55
2022/01/19 09:49:29;;;;;;;5.75;4.10;;;;;;;3.41;100.00;101877.69;5043854;28;20141;-54
2022/01/19 09:51:55;;;;;;;9.48;3.17;;;;;;;3.31;100.00;101866.19;5041443;28;20329;-55
2022/01/19 09:54:23;;;;;;;4.97;3.05;;;;;;;3.15;100.00;101867.28;5023936;28;20039;-49
2022/01/19 09:56:49;;;;;;;8.80;4.38;;;;;;;3.05;100.00;101867.06;5042871;28;20025;-52
2022/01/19 09:59:16;;;;;;;8.95;3.22;;;;;;;3.07;100.00;101874.81;5031667;28;20033;-51
2022/01/19 10:02:09;;;;;;;7.03;3.63;;;;;;;3.15;100.00;101888.25;5042455;28;20108;-52
2022/01/19 10:04:45;;;;;;;5.35;3.65;;;;;;;3.19;100.00;101881.81;5026376;28;20041;-51
2022/01/19 10:07:21;;;;;;;5.15;3.33;;;;;;;3.20;100.00;101877.41;5035796;28;20042;-55
2022/01/19 10:09:57;;;;;;;4.40;2.97;;;;;;;3.20;100.00;101865.16;5037850;28;20037;-51
2022/01/19 10:17:55;;;;;;;6.35;3.63;;;;;;;3.35;100.00;101883.34;5033071;28;20055;-48
2022/01/19 10:20:23;;;;;;;7.82;3.10;;;;;;;3.51;100.00;101881.28;5045042;28;20112;-50
2022/01/19 10:22:49;;;;;;;6.10;3.17;;;;;;;3.60;100.00;101893.75;5044944;28;20140;-54
2022/01/19 10:25:14;;;;;;;6.80;4.68;;;;;;;3.72;100.00;101886.78;5045422;28;20041;-54
2022/01/19 10:27:41;;;;;;;8.68;5.25;;;;;;;3.87;100.00;101892.69;5047364;28;20059;-49
2022/01/19 10:30:06;;;;;;;11.88;6.93;;;;;;;4.05;100.00;101887.84;5038629;28;20032;-50
2022/01/19 10:32:33;;;;;;;14.20;7.97;;;;;;;4.12;100.00;101884.66;5037117;28;20037;-53
2022/01/19 10:35:11;;;;;;;23.88;8.63;;;;;;;4.21;100.00;101887.56;5044104;28;20440;-53
2022/01/19 10:37:37;;;;;;;12.55;6.55;;;;;;;4.38;100.00;101889.75;5041897;28;20033;-53
2022/01/19 10:40:03;;;;;;;15.10;8.45;;;;;;;4.55;100.00;101897.19;5045170;28;20056;-50
2022/01/19 10:42:33;;;;;;;15.90;7.40;;;;;;;4.64;100.00;101889.56;5041129;28;20029;-57
2022/01/19 10:45:10;;;;;;;12.93;5.93;;;;;;;4.66;100.00;101895.53;5043789;28;20099;-52
2022/01/19 10:47:47;;;;;;;7.63;4.60;;;;;;;4.69;100.00;101890.88;5043213;28;20033;-53
2022/01/19 10:50:28;;;;;;;7.05;4.13;;;;;;;4.77;100.00;101893.72;5047558;28;20056;-52
2022/01/19 10:52:55;;;;;;;8.38;3.65;;;;;;;4.84;100.00;101885.41;5047829;28;20037;-52
2022/01/19 10:55:20;;;;;;;12.52;3.53;;;;;;;4.91;100.00;101887.44;5047498;28;20029;-54
2022/01/19 10:57:48;;;;;;;9.27;3.97;;;;;;;5.12;100.00;101877.00;5044140;28;20398;-56
2022/01/19 11:00:18;;;;;;;12.60;5.93;;;;;;;5.31;100.00;101873.75;5042818;28;20041;-52
2022/01/19 11:02:45;;;;;;;17.98;10.88;;;;;;;5.36;100.00;101884.75;5047154;28;20029;-55
2022/01/19 11:05:11;;;;;;;6.18;4.00;;;;;;;5.55;100.00;101881.50;5047602;28;20379;-55
2022/01/19 11:07:37;;;;;;;3.22;1.98;;;;;;;5.68;100.00;101863.75;5040472;28;20024;-52
2022/01/19 11:12:48;;;;;;;5.93;1.92;;;;;;;6.10;100.00;101855.09;5047570;28;20033;-53
2022/01/19 11:15:19;;;;;;;3.83;2.80;;;;;;;6.24;100.00;101852.13;5045637;28;20037;-51
2022/01/19 11:17:46;;;;;;;7.60;3.58;;;;;;;6.32;100.00;101852.34;5038178;28;20029;-53
2022/01/19 11:20:14;;;;;;;4.28;2.00;;;;;;;6.37;100.00;101841.38;5046472;28;20095;-54
2022/01/19 11:23:17;;;;;;;7.97;3.40;;;;;;;6.38;100.00;101831.69;5034157;28;20025;-53
2022/01/19 11:26:00;;;;;;;16.27;3.15;;;;;;;6.44;100.00;101826.72;5043010;28;20090;-51
2022/01/19 11:28:46;;;;;;;5.22;2.50;;;;;;;6.55;100.00;101829.25;5026447;28;20043;-54
2022/01/19 11:31:13;;;;;;;7.15;2.42;;;;;;;6.64;100.00;101830.28;5038098;28;20026;-54
2022/01/19 11:33:44;;;;;;;3.28;1.65;;;;;;;6.65;100.00;101826.69;5042236;28;20033;-57
2022/01/19 11:36:20;;;;;;;6.33;2.07;;;;;;;6.67;100.00;101818.66;5036992;28;20033;-52
2022/01/19 11:38:49;;;;;;;4.57;1.88;;;;;;;6.71;100.00;101813.00;5036662;28;20041;-49
2022/01/19 11:41:14;;;;;;;2.25;1.60;;;;;;;6.69;100.00;101803.53;5041173;28;20115;-51
2022/01/19 11:43:49;;;;;;;3.60;2.85;;;;;;;6.77;100.00;101803.72;5046529;28;20162;-54
2022/01/19 11:46:34;;;;;;;11.35;4.45;;;;;;;6.91;100.00;101800.69;5046801;28;20025;-56
2022/01/19 11:49:02;;;;;;;4.32;2.65;;;;;;;6.96;100.00;101801.09;5037092;28;20029;-55
2022/01/19 11:51:32;;;;;;;4.90;1.88;;;;;;;6.99;100.00;101792.91;5046488;28;20111;-54
2022/01/19 11:54:28;;;;;;;3.90;2.67;;;;;;;7.03;100.00;101797.94;5038827;28;20033;-54
2022/01/19 11:56:59;;;;;;;9.38;3.67;;;;;;;7.06;100.00;101789.75;5044461;28;20032;-54
2022/01/19 11:59:26;;;;;;;;;;;;;;;7.11;100.00;101771.72;5041140;28;20041;-54
2022/01/19 12:01:52;;;;;;;3.67;1.42;;;;;;;7.14;100.00;101774.91;5040361;28;19920;-51
2022/01/19 12:04:21;;;;;;;9.27;3.50;;;;;;;7.20;100.00;101781.44;5035297;28;20047;-54
2022/01/19 12:06:47;;;;;;;6.65;1.80;;;;;;;7.29;100.00;101766.59;5032102;28;20032;-54
2022/01/19 12:09:14;;;;;;;10.43;2.80;;;;;;;7.30;100.00;101763.81;5035251;28;20036;-55
2022/01/19 12:11:46;;;;;;;8.13;1.70;;;;;;;7.30;100.00;101761.19;5042950;28;20035;-54
2022/01/19 12:14:17;;;;;;;3.65;2.10;;;;;;;7.44;100.00;101757.31;5044589;28;20037;-52
2022/01/19 12:17:24;;;;;;;1.90;1.67;;;;;;;7.47;100.00;101748.28;5029642;28;20371;-55
2022/01/19 12:19:46;;;;;;;4.18;2.13;;;;;;;7.46;100.00;101741.31;5042633;28;20075;-53
2022/01/19 12:22:20;;;;;;;4.90;1.90;;;;;;;7.41;100.00;101731.19;5036859;28;20518;-54
2022/01/19 12:24:56;;;;;;;2.88;1.80;;;;;;;7.41;100.00;101747.88;5031585;28;20043;-56
2022/01/19 12:27:27;;;;;;;4.63;2.53;;;;;;;7.45;100.00;101751.03;5047219;28;20482;-53
2022/01/19 12:29:58;;;;;;;2.57;1.17;;;;;;;7.44;100.00;101754.66;5037913;28;20064;-52
2022/01/19 12:32:26;;;;;;;7.45;0.90;;;;;;;7.42;100.00;101738.13;5039223;28;20359;-54
2022/01/19 12:34:53;;;;;;;2.38;1.23;;;;;;;7.46;100.00;101738.69;5043227;28;20033;-54
2022/01/19 12:37:24;;;;;;;2.42;2.20;;;;;;;7.53;100.00;101730.06;5041404;28;20025;-49
2022/01/19 12:39:50;;;;;;;5.10;1.00;;;;;;;7.47;100.00;101741.19;5042492;28;20085;-57
2022/01/19 12:42:39;;;;;;;1.52;0.82;;;;;;;7.40;100.00;101737.44;5039590;28;20143;-50
2022/01/19 12:45:18;;;;;;;1.17;1.08;;;;;;;7.30;100.00;101740.06;5035394;28;20056;-55
2022/01/19 12:47:44;;;;;;;5.28;1.77;;;;;;;7.25;100.00;101744.94;5038127;28;20025;-51
2022/01/19 12:50:09;;;;;;;7.38;1.75;;;;;;;7.20;100.00;101742.72;5040164;28;20696;-52
2022/01/19 12:52:57;;;;;;;2.90;1.25;;;;;;;7.20;100.00;101747.16;5036935;28;20765;-53